sensor_id;sensor_type;location;lat;lon;timestamp;temperature;humidity
48376;DHT22;34178;50.904;11.560;2023-01-25T00:01:32;1.90;99.90
48376;DHT22;34178;50.904;11.560;2023-01-25T00:03:58;1.90;99.90
48376;DHT22;34178;50.904;11.560;2023-01-25T00:06:24;1.90;99.90
48376;DHT22;34178;50.904;11.560;2023-01-25T00:08:50;1.90;99.90
48376;DHT22;34178;50.904;11.560;2023-01-25T00:11:16;1.90;99.90
48376;DHT22;34178;50.904;11.560;2023-01-25T00:13:42;2.00;99.90
48376;DHT22;34178;50.904;11.560;2023-01-25T00:16:08;1.90;99.90
48376;DHT22;34178;50.904;11.560;2023-01-25T00:18:34;1.90;99.90
48376;DHT22;34178;50.904;11.560;2023-01-25T00:21:10;2.00;99.90
48376;DHT22;34178;50.904;11.560;2023-01-25T00:23:35;2.00;99.90
48376;DHT22;34178;50.904;11.560;2023-01-25T00:26:01;2.00;99.90
48376;DHT22;34178;50.904;11.560;2023-01-25T00:28:26;2.00;99.90
48376;DHT22;34178;50.904;11.560;2023-01-25T00:31:15;2.00;99.90
48376;DHT22;34178;50.904;11.560;2023-01-25T00:36:56;1.90;99.90
48376;DHT22;34178;50.904;11.560;2023-01-25T00:39:23;1.90;99.90
48376;DHT22;34178;50.904;11.560;2023-01-25T00:41:49;1.90;99.90
48376;DHT22;34178;50.904;11.560;2023-01-25T00:44:15;1.90;99.90
48376;DHT22;34178;50.904;11.560;2023-01-25T00:46:40;1.80;99.90
48376;DHT22;34178;50.904;11.560;2023-01-25T00:49:06;1.90;99.90
48376;DHT22;34178;50.904;11.560;2023-01-25T00:51:40;1.80;99.90
48376;DHT22;34178;50.904;11.560;2023-01-25T00:54:05;1.90;99.90
48376;DHT22;34178;50.904;11.560;2023-01-25T00:56:31;1.90;99.90
48376;DHT22;34178;50.904;11.560;2023-01-25T00:58:56;1.90;99.90
48376;DHT22;34178;50.904;11.560;2023-01-25T01:01:22;1.90;99.90
48376;DHT22;34178;50.904;11.560;2023-01-25T01:03:50;1.90;99.90
48376;DHT22;34178;50.904;11.560;2023-01-25T01:09:00;1.90;99.90
48376;DHT22;34178;50.904;11.560;2023-01-25T01:11:26;1.90;99.90
48376;DHT22;34178;50.904;11.560;2023-01-25T01:20:35;1.90;99.90
48376;DHT22;34178;50.904;11.560;2023-01-25T01:23:01;1.90;99.90
48376;DHT22;34178;50.904;11.560;2023-01-25T01:25:26;1.90;99.90
48376;DHT22;34178;50.904;11.560;2023-01-25T01:27:52;1.90;99.90
48376;DHT22;34178;50.904;11.560;2023-01-25T01:30:18;1.90;99.90
48376;DHT22;34178;50.904;11.560;2023-01-25T01:32:43;1.90;99.90
48376;DHT22;34178;50.904;11.560;2023-01-25T01:35:09;1.80;99.90
48376;DHT22;34178;50.904;11.560;2023-01-25T01:37:34;1.70;99.90
48376;DHT22;34178;50.904;11.560;2023-01-25T01:40:00;1.70;99.90
48376;DHT22;34178;50.904;11.560;2023-01-25T01:42:26;1.60;99.90
48376;DHT22;34178;50.904;11.560;2023-01-25T01:44:53;1.60;99.90
48376;DHT22;34178;50.904;11.560;2023-01-25T01:47:30;1.60;99.90
48376;DHT22;34178;50.904;11.560;2023-01-25T01:50:02;1.60;99.90
48376;DHT22;34178;50.904;11.560;2023-01-25T01:52:32;1.60;99.90
48376;DHT22;34178;50.904;11.560;2023-01-25T01:57:33;1.60;99.90
48376;DHT22;34178;50.904;11.560;2023-01-25T02:00:10;1.60;99.90
48376;DHT22;34178;50.904;11.560;2023-01-25T02:02:37;1.70;99.90
48376;DHT22;34178;50.904;11.560;2023-01-25T02:05:05;1.70;99.90
48376;DHT22;34178;50.904;11.560;2023-01-25T02:07:34;1.70;99.90
48376;DHT22;34178;50.904;11.560;2023-01-25T02:10:02;1.70;99.90
48376;DHT22;34178;50.904;11.560;2023-01-25T02:12:28;1.80;99.90
48376;DHT22;34178;50.904;11.560;2023-01-25T02:14:54;1.70;99.90
48376;DHT22;34178;50.904;11.560;2023-01-25T02:17:27;1.70;99.90
48376;DHT22;34178;50.904;11.560;2023-01-25T02:20:46;1.70;99.90
48376;DHT22;34178;50.904;11.560;2023-01-25T02:23:12;1.70;99.90
48376;DHT22;34178;50.904;11.560;2023-01-25T02:25:41;1.70;99.90
48376;DHT22;34178;50.904;11.560;2023-01-25T02:28:35;1.70;99.90
48376;DHT22;34178;50.904;11.560;2023-01-25T02:31:03;1.70;99.90
48376;DHT22;34178;50.904;11.560;2023-01-25T02:33:28;1.70;99.90
48376;DHT22;34178;50.904;11.560;2023-01-25T02:38:41;1.70;99.90
48376;DHT22;34178;50.904;11.560;2023-01-25T02:43:54;1.80;99.90
48376;DHT22;34178;50.904;11.560;2023-01-25T02:46:29;1.80;99.90
48376;DHT22;34178;50.904;11.560;2023-01-25T02:48:57;1.80;99.90
48376;DHT22;34178;50.904;11.560;2023-01-25T02:51:24;1.80;99.90
48376;DHT22;34178;50.904;11.560;2023-01-25T02:53:50;1.80;99.90
48376;DHT22;34178;50.904;11.560;2023-01-25T02:56:16;1.80;99.90
48376;DHT22;34178;50.904;11.560;2023-01-25T02:58:42;1.70;99.90
48376;DHT22;34178;50.904;11.560;2023-01-25T03:01:09;1.70;99.90
48376;DHT22;34178;50.904;11.560;2023-01-25T03:03:35;1.70;99.90
48376;DHT22;34178;50.904;11.560;2023-01-25T03:06:01;1.70;99.90
48376;DHT22;34178;50.904;11.560;2023-01-25T03:08:27;1.80;99.90
48376;DHT22;34178;50.904;11.560;2023-01-25T03:10:56;1.80;99.90
48376;DHT22;34178;50.904;11.560;2023-01-25T03:13:22;1.80;99.90
48376;DHT22;34178;50.904;11.560;2023-01-25T03:15:48;1.80;99.90
48376;DHT22;34178;50.904;11.560;2023-01-25T03:18:14;1.80;99.90
48376;DHT22;34178;50.904;11.560;2023-01-25T03:20:40;1.70;99.90
48376;DHT22;34178;50.904;11.560;2023-01-25T03:23:05;1.70;99.90
48376;DHT22;34178;50.904;11.560;2023-01-25T03:25:31;1.70;99.90
48376;DHT22;34178;50.904;11.560;2023-01-25T03:27:57;1.60;99.90
48376;DHT22;34178;50.904;11.560;2023-01-25T03:30:22;1.60;99.90
48376;DHT22;34178;50.904;11.560;2023-01-25T03:32:48;1.60;99.90
48376;DHT22;34178;50.904;11.560;2023-01-25T03:35:15;1.70;99.90
48376;DHT22;34178;50.904;11.560;2023-01-25T03:37:40;1.60;99.90
48376;DHT22;34178;50.904;11.560;2023-01-25T03:40:07;1.60;99.90
48376;DHT22;34178;50.904;11.560;2023-01-25T03:42:32;1.60;99.90
48376;DHT22;34178;50.904;11.560;2023-01-25T03:44:58;1.60;99.90
48376;DHT22;34178;50.904;11.560;2023-01-25T03:47:24;1.50;99.90
48376;DHT22;34178;50.904;11.560;2023-01-25T03:49:49;1.50;99.90
48376;DHT22;34178;50.904;11.560;2023-01-25T03:52:15;1.50;99.90
48376;DHT22;34178;50.904;11.560;2023-01-25T03:54:41;1.50;99.90
48376;DHT22;34178;50.904;11.560;2023-01-25T03:57:07;1.50;99.90
48376;DHT22;34178;50.904;11.560;2023-01-25T03:59:32;1.60;99.90
48376;DHT22;34178;50.904;11.560;2023-01-25T04:01:58;1.60;99.90
48376;DHT22;34178;50.904;11.560;2023-01-25T04:04:24;1.60;99.90
48376;DHT22;34178;50.904;11.560;2023-01-25T04:06:49;1.60;99.90
48376;DHT22;34178;50.904;11.560;2023-01-25T04:09:15;1.70;99.90
48376;DHT22;34178;50.904;11.560;2023-01-25T04:11:41;1.60;99.90
48376;DHT22;34178;50.904;11.560;2023-01-25T04:14:07;1.60;99.90
48376;DHT22;34178;50.904;11.560;2023-01-25T04:16:32;1.70;99.90
48376;DHT22;34178;50.904;11.560;2023-01-25T04:19:00;1.70;99.90
48376;DHT22;34178;50.904;11.560;2023-01-25T04:21:26;1.70;99.90
48376;DHT22;34178;50.904;11.560;2023-01-25T04:23:51;1.70;99.90
48376;DHT22;34178;50.904;11.560;2023-01-25T04:26:17;1.70;99.90
48376;DHT22;34178;50.904;11.560;2023-01-25T04:28:43;1.70;99.90
48376;DHT22;34178;50.904;11.560;2023-01-25T04:31:08;1.70;99.90
48376;DHT22;34178;50.904;11.560;2023-01-25T04:33:35;1.70;99.90
48376;DHT22;34178;50.904;11.560;2023-01-25T04:36:01;1.80;99.90
48376;DHT22;34178;50.904;11.560;2023-01-25T04:38:27;1.80;99.90
48376;DHT22;34178;50.904;11.560;2023-01-25T04:40:52;1.70;99.90
48376;DHT22;34178;50.904;11.560;2023-01-25T04:43:19;1.70;99.90
48376;DHT22;34178;50.904;11.560;2023-01-25T04:45:45;1.60;99.90
48376;DHT22;34178;50.904;11.560;2023-01-25T04:48:12;1.60;99.90
48376;DHT22;34178;50.904;11.560;2023-01-25T04:50:41;1.60;99.90
48376;DHT22;34178;50.904;11.560;2023-01-25T04:53:09;1.70;99.90
48376;DHT22;34178;50.904;11.560;2023-01-25T04:55:35;1.70;99.90
48376;DHT22;34178;50.904;11.560;2023-01-25T04:58:02;1.70;99.90
48376;DHT22;34178;50.904;11.560;2023-01-25T05:00:28;1.70;99.90
48376;DHT22;34178;50.904;11.560;2023-01-25T05:02:55;1.70;99.90
48376;DHT22;34178;50.904;11.560;2023-01-25T05:05:21;1.60;99.90
48376;DHT22;34178;50.904;11.560;2023-01-25T05:07:46;1.70;99.90
48376;DHT22;34178;50.904;11.560;2023-01-25T05:10:12;1.70;99.90
48376;DHT22;34178;50.904;11.560;2023-01-25T05:12:38;1.70;99.90
48376;DHT22;34178;50.904;11.560;2023-01-25T05:15:04;1.80;99.90
48376;DHT22;34178;50.904;11.560;2023-01-25T05:17:30;1.70;99.90
48376;DHT22;34178;50.904;11.560;2023-01-25T05:19:56;1.70;99.90
48376;DHT22;34178;50.904;11.560;2023-01-25T05:22:21;1.70;99.90
48376;DHT22;34178;50.904;11.560;2023-01-25T05:24:47;1.70;99.90
48376;DHT22;34178;50.904;11.560;2023-01-25T05:27:16;1.70;99.90
48376;DHT22;34178;50.904;11.560;2023-01-25T05:29:43;1.70;99.90
48376;DHT22;34178;50.904;11.560;2023-01-25T05:34:37;1.70;99.90
48376;DHT22;34178;50.904;11.560;2023-01-25T05:37:04;1.70;99.90
48376;DHT22;34178;50.904;11.560;2023-01-25T05:39:31;1.70;99.90
48376;DHT22;34178;50.904;11.560;2023-01-25T05:41:56;1.70;99.90
48376;DHT22;34178;50.904;11.560;2023-01-25T05:44:22;1.70;99.90
48376;DHT22;34178;50.904;11.560;2023-01-25T05:46:48;1.60;99.90
48376;DHT22;34178;50.904;11.560;2023-01-25T05:49:15;1.70;99.90
48376;DHT22;34178;50.904;11.560;2023-01-25T05:51:41;1.70;99.90
48376;DHT22;34178;50.904;11.560;2023-01-25T05:54:11;1.70;99.90
48376;DHT22;34178;50.904;11.560;2023-01-25T05:56:37;1.70;99.90
48376;DHT22;34178;50.904;11.560;2023-01-25T05:59:02;1.60;99.90
48376;DHT22;34178;50.904;11.560;2023-01-25T06:01:28;1.70;99.90
48376;DHT22;34178;50.904;11.560;2023-01-25T06:03:54;1.70;99.90
48376;DHT22;34178;50.904;11.560;2023-01-25T06:06:21;1.70;99.90
48376;DHT22;34178;50.904;11.560;2023-01-25T06:08:47;1.70;99.90
48376;DHT22;34178;50.904;11.560;2023-01-25T06:11:15;1.60;99.90
48376;DHT22;34178;50.904;11.560;2023-01-25T06:13:41;1.60;99.90
48376;DHT22;34178;50.904;11.560;2023-01-25T06:16:07;1.60;99.90
48376;DHT22;34178;50.904;11.560;2023-01-25T06:18:34;1.70;99.90
48376;DHT22;34178;50.904;11.560;2023-01-25T06:21:00;1.70;99.90
48376;DHT22;34178;50.904;11.560;2023-01-25T06:23:27;1.70;99.90
48376;DHT22;34178;50.904;11.560;2023-01-25T06:26:04;1.70;99.90
48376;DHT22;34178;50.904;11.560;2023-01-25T06:28:32;1.80;99.90
48376;DHT22;34178;50.904;11.560;2023-01-25T06:31:05;1.80;99.90
48376;DHT22;34178;50.904;11.560;2023-01-25T06:33:31;1.70;99.90
48376;DHT22;34178;50.904;11.560;2023-01-25T06:36:05;1.70;99.90
48376;DHT22;34178;50.904;11.560;2023-01-25T06:38:31;1.70;99.90
48376;DHT22;34178;50.904;11.560;2023-01-25T06:40:59;1.70;99.90
48376;DHT22;34178;50.904;11.560;2023-01-25T06:43:26;1.60;99.90
48376;DHT22;34178;50.904;11.560;2023-01-25T06:45:51;1.60;99.90
48376;DHT22;34178;50.904;11.560;2023-01-25T06:48:17;1.70;99.90
48376;DHT22;34178;50.904;11.560;2023-01-25T06:50:43;1.70;99.90
48376;DHT22;34178;50.904;11.560;2023-01-25T06:53:08;1.70;99.90
48376;DHT22;34178;50.904;11.560;2023-01-25T06:55:34;1.80;99.90
48376;DHT22;34178;50.904;11.560;2023-01-25T06:58:00;1.80;99.90
48376;DHT22;34178;50.904;11.560;2023-01-25T07:00:26;1.80;99.90
48376;DHT22;34178;50.904;11.560;2023-01-25T07:02:51;1.80;99.90
48376;DHT22;34178;50.904;11.560;2023-01-25T07:05:17;1.80;99.90
48376;DHT22;34178;50.904;11.560;2023-01-25T07:07:46;1.80;99.90
48376;DHT22;34178;50.904;11.560;2023-01-25T07:10:11;1.80;99.90
48376;DHT22;34178;50.904;11.560;2023-01-25T07:12:37;1.80;99.90
48376;DHT22;34178;50.904;11.560;2023-01-25T07:15:03;1.80;99.90
48376;DHT22;34178;50.904;11.560;2023-01-25T07:17:29;1.80;99.90
48376;DHT22;34178;50.904;11.560;2023-01-25T07:19:54;1.80;99.90
48376;DHT22;34178;50.904;11.560;2023-01-25T07:22:20;1.80;99.90
48376;DHT22;34178;50.904;11.560;2023-01-25T07:24:45;1.90;99.90
48376;DHT22;34178;50.904;11.560;2023-01-25T07:27:15;1.90;99.90
48376;DHT22;34178;50.904;11.560;2023-01-25T07:29:41;1.90;99.90
48376;DHT22;34178;50.904;11.560;2023-01-25T07:32:07;1.90;99.90
48376;DHT22;34178;50.904;11.560;2023-01-25T07:34:33;2.00;99.90
48376;DHT22;34178;50.904;11.560;2023-01-25T07:36:58;1.90;99.90
48376;DHT22;34178;50.904;11.560;2023-01-25T07:39:24;1.90;99.90
48376;DHT22;34178;50.904;11.560;2023-01-25T07:41:50;1.90;99.90
48376;DHT22;34178;50.904;11.560;2023-01-25T07:44:15;1.80;99.90
48376;DHT22;34178;50.904;11.560;2023-01-25T07:46:41;1.80;99.90
48376;DHT22;34178;50.904;11.560;2023-01-25T07:49:07;1.80;99.90
48376;DHT22;34178;50.904;11.560;2023-01-25T07:51:32;1.90;99.90
48376;DHT22;34178;50.904;11.560;2023-01-25T07:54:00;1.90;99.90
48376;DHT22;34178;50.904;11.560;2023-01-25T07:56:31;1.90;99.90
48376;DHT22;34178;50.904;11.560;2023-01-25T07:58:58;1.90;99.90
48376;DHT22;34178;50.904;11.560;2023-01-25T08:01:25;1.90;99.90
48376;DHT22;34178;50.904;11.560;2023-01-25T08:03:52;1.80;99.90
48376;DHT22;34178;50.904;11.560;2023-01-25T08:06:23;1.90;99.90
48376;DHT22;34178;50.904;11.560;2023-01-25T08:08:52;1.90;99.90
48376;DHT22;34178;50.904;11.560;2023-01-25T08:11:24;1.90;99.90
48376;DHT22;34178;50.904;11.560;2023-01-25T08:13:50;1.90;99.90
48376;DHT22;34178;50.904;11.560;2023-01-25T08:16:18;1.90;99.90
48376;DHT22;34178;50.904;11.560;2023-01-25T08:18:52;1.90;99.90
48376;DHT22;34178;50.904;11.560;2023-01-25T08:21:20;1.90;99.90
48376;DHT22;34178;50.904;11.560;2023-01-25T08:23:46;1.90;99.90
48376;DHT22;34178;50.904;11.560;2023-01-25T08:26:13;1.80;99.90
48376;DHT22;34178;50.904;11.560;2023-01-25T08:28:40;1.90;99.90
48376;DHT22;34178;50.904;11.560;2023-01-25T08:31:13;2.00;99.90
48376;DHT22;34178;50.904;11.560;2023-01-25T08:33:39;2.00;99.90
48376;DHT22;34178;50.904;11.560;2023-01-25T08:36:05;1.90;99.90
48376;DHT22;34178;50.904;11.560;2023-01-25T08:38:33;1.80;99.90
48376;DHT22;34178;50.904;11.560;2023-01-25T08:41:13;1.80;99.90
48376;DHT22;34178;50.904;11.560;2023-01-25T08:43:40;1.90;99.90
48376;DHT22;34178;50.904;11.560;2023-01-25T08:46:06;1.90;99.90
48376;DHT22;34178;50.904;11.560;2023-01-25T08:48:32;2.00;99.90
48376;DHT22;34178;50.904;11.560;2023-01-25T08:50:58;2.00;99.90
48376;DHT22;34178;50.904;11.560;2023-01-25T08:53:30;2.10;99.90
48376;DHT22;34178;50.904;11.560;2023-01-25T08:55:56;2.00;99.90
48376;DHT22;34178;50.904;11.560;2023-01-25T08:58:26;2.10;99.90
48376;DHT22;34178;50.904;11.560;2023-01-25T09:00:52;2.10;99.90
48376;DHT22;34178;50.904;11.560;2023-01-25T09:03:17;2.00;99.90
48376;DHT22;34178;50.904;11.560;2023-01-25T09:05:43;2.10;99.90
48376;DHT22;34178;50.904;11.560;2023-01-25T09:08:09;2.20;99.90
48376;DHT22;34178;50.904;11.560;2023-01-25T09:10:35;2.20;99.90
48376;DHT22;34178;50.904;11.560;2023-01-25T09:13:01;2.20;99.90
48376;DHT22;34178;50.904;11.560;2023-01-25T09:15:27;2.30;99.90
48376;DHT22;34178;50.904;11.560;2023-01-25T09:17:54;2.30;99.90
48376;DHT22;34178;50.904;11.560;2023-01-25T09:20:20;2.30;99.90
48376;DHT22;34178;50.904;11.560;2023-01-25T09:22:46;2.40;99.90
48376;DHT22;34178;50.904;11.560;2023-01-25T09:25:12;2.30;99.90
48376;DHT22;34178;50.904;11.560;2023-01-25T09:27:39;2.20;99.90
48376;DHT22;34178;50.904;11.560;2023-01-25T09:30:06;2.20;99.90
48376;DHT22;34178;50.904;11.560;2023-01-25T09:32:32;2.30;99.90
48376;DHT22;34178;50.904;11.560;2023-01-25T09:34:58;2.40;99.90
48376;DHT22;34178;50.904;11.560;2023-01-25T09:37:23;2.40;99.90
48376;DHT22;34178;50.904;11.560;2023-01-25T09:39:49;2.40;99.90
48376;DHT22;34178;50.904;11.560;2023-01-25T09:42:57;2.40;99.90
48376;DHT22;34178;50.904;11.560;2023-01-25T09:45:32;2.30;99.90
48376;DHT22;34178;50.904;11.560;2023-01-25T09:51:19;2.30;99.90
48376;DHT22;34178;50.904;11.560;2023-01-25T09:53:49;2.20;99.90
48376;DHT22;34178;50.904;11.560;2023-01-25T09:56:26;2.20;99.90
48376;DHT22;34178;50.904;11.560;2023-01-25T09:58:58;2.20;99.90
48376;DHT22;34178;50.904;11.560;2023-01-25T10:01:49;2.20;99.90
48376;DHT22;34178;50.904;11.560;2023-01-25T10:04:43;2.20;99.90
48376;DHT22;34178;50.904;11.560;2023-01-25T10:07:21;2.30;99.90
48376;DHT22;34178;50.904;11.560;2023-01-25T10:10:02;2.30;99.90
48376;DHT22;34178;50.904;11.560;2023-01-25T10:12:35;2.40;99.90
48376;DHT22;34178;50.904;11.560;2023-01-25T10:15:00;2.30;99.90
48376;DHT22;34178;50.904;11.560;2023-01-25T10:17:35;2.40;99.90
48376;DHT22;34178;50.904;11.560;2023-01-25T10:28:40;2.20;99.90
48376;DHT22;34178;50.904;11.560;2023-01-25T10:31:15;2.20;99.90
48376;DHT22;34178;50.904;11.560;2023-01-25T10:33:43;2.20;99.90
48376;DHT22;34178;50.904;11.560;2023-01-25T10:36:23;2.20;99.90
48376;DHT22;34178;50.904;11.560;2023-01-25T10:38:51;2.00;99.90
48376;DHT22;34178;50.904;11.560;2023-01-25T10:41:33;1.90;99.90
48376;DHT22;34178;50.904;11.560;2023-01-25T10:44:00;2.00;99.90
48376;DHT22;34178;50.904;11.560;2023-01-25T10:46:56;2.10;99.90
48376;DHT22;34178;50.904;11.560;2023-01-25T10:52:23;2.10;99.90
48376;DHT22;34178;50.904;11.560;2023-01-25T10:57:32;2.40;99.90
48376;DHT22;34178;50.904;11.560;2023-01-25T11:00:01;2.30;99.90
48376;DHT22;34178;50.904;11.560;2023-01-25T11:02:46;1.80;99.90
48376;DHT22;34178;50.904;11.560;2023-01-25T11:07:53;1.90;99.90
48376;DHT22;34178;50.904;11.560;2023-01-25T11:10:36;2.10;99.90
48376;DHT22;34178;50.904;11.560;2023-01-25T11:15:44;2.50;99.90
48376;DHT22;34178;50.904;11.560;2023-01-25T11:18:25;2.50;99.90
48376;DHT22;34178;50.904;11.560;2023-01-25T11:21:31;2.60;99.90
48376;DHT22;34178;50.904;11.560;2023-01-25T11:26:32;2.50;99.90
48376;DHT22;34178;50.904;11.560;2023-01-25T11:31:35;2.50;99.90
48376;DHT22;34178;50.904;11.560;2023-01-25T11:34:01;2.60;99.90
48376;DHT22;34178;50.904;11.560;2023-01-25T11:42:51;2.70;99.90
48376;DHT22;34178;50.904;11.560;2023-01-25T11:48:11;2.60;99.90
48376;DHT22;34178;50.904;11.560;2023-01-25T11:53:27;2.20;99.90
48376;DHT22;34178;50.904;11.560;2023-01-25T12:18:55;1.20;99.90
48376;DHT22;34178;50.904;11.560;2023-01-25T12:29:48;1.40;99.90
48376;DHT22;34178;50.904;11.560;2023-01-25T12:32:23;1.70;99.90
48376;DHT22;34178;50.904;11.560;2023-01-25T12:37:33;1.70;99.90
48376;DHT22;34178;50.904;11.560;2023-01-25T12:40:07;1.80;99.90
48376;DHT22;34178;50.904;11.560;2023-01-25T12:42:52;2.00;99.90
48376;DHT22;34178;50.904;11.560;2023-01-25T12:45:33;2.00;99.90
48376;DHT22;34178;50.904;11.560;2023-01-25T12:48:13;2.20;99.90
48376;DHT22;34178;50.904;11.560;2023-01-25T12:50:42;2.30;99.90
48376;DHT22;34178;50.904;11.560;2023-01-25T12:55:43;2.50;99.90
48376;DHT22;34178;50.904;11.560;2023-01-25T13:01:32;2.10;99.90
48376;DHT22;34178;50.904;11.560;2023-01-25T13:09:29;1.60;99.90
48376;DHT22;34178;50.904;11.560;2023-01-25T13:12:02;1.50;99.90
48376;DHT22;34178;50.904;11.560;2023-01-25T13:22:02;1.40;99.90
48376;DHT22;34178;50.904;11.560;2023-01-25T13:24:29;1.50;99.90
48376;DHT22;34178;50.904;11.560;2023-01-25T13:26:57;1.70;99.90
48376;DHT22;34178;50.904;11.560;2023-01-25T13:32:08;1.50;99.90
48376;DHT22;34178;50.904;11.560;2023-01-25T13:37:17;1.50;99.90
48376;DHT22;34178;50.904;11.560;2023-01-25T13:42:20;1.50;99.90
48376;DHT22;34178;50.904;11.560;2023-01-25T13:44:52;1.60;99.90
48376;DHT22;34178;50.904;11.560;2023-01-25T13:47:31;1.80;99.90
48376;DHT22;34178;50.904;11.560;2023-01-25T13:52:34;1.80;99.90
48376;DHT22;34178;50.904;11.560;2023-01-25T13:55:00;1.70;99.90
48376;DHT22;34178;50.904;11.560;2023-01-25T13:57:28;1.80;99.90
48376;DHT22;34178;50.904;11.560;2023-01-25T14:00:04;1.90;99.90
48376;DHT22;34178;50.904;11.560;2023-01-25T14:02:30;2.00;99.90
48376;DHT22;34178;50.904;11.560;2023-01-25T14:04:57;2.10;99.90
48376;DHT22;34178;50.904;11.560;2023-01-25T14:07:31;2.10;99.90
48376;DHT22;34178;50.904;11.560;2023-01-25T14:10:01;2.10;99.90
48376;DHT22;34178;50.904;11.560;2023-01-25T14:12:30;2.20;99.90
48376;DHT22;34178;50.904;11.560;2023-01-25T14:15:08;2.10;99.90
48376;DHT22;34178;50.904;11.560;2023-01-25T14:17:34;2.00;99.90
48376;DHT22;34178;50.904;11.560;2023-01-25T14:20:01;1.90;99.90
48376;DHT22;34178;50.904;11.560;2023-01-25T14:22:29;1.60;99.90
48376;DHT22;34178;50.904;11.560;2023-01-25T14:25:13;1.60;99.90
48376;DHT22;34178;50.904;11.560;2023-01-25T14:27:54;1.70;99.90
48376;DHT22;34178;50.904;11.560;2023-01-25T14:30:29;1.80;99.90
48376;DHT22;34178;50.904;11.560;2023-01-25T14:33:00;1.80;99.90
48376;DHT22;34178;50.904;11.560;2023-01-25T14:37:57;2.10;99.90
48376;DHT22;34178;50.904;11.560;2023-01-25T14:40:26;1.80;99.90
48376;DHT22;34178;50.904;11.560;2023-01-25T14:42:53;1.60;99.90
48376;DHT22;34178;50.904;11.560;2023-01-25T14:45:20;1.70;99.90
48376;DHT22;34178;50.904;11.560;2023-01-25T14:47:49;1.50;99.90
48376;DHT22;34178;50.904;11.560;2023-01-25T14:50:34;1.50;99.90
48376;DHT22;34178;50.904;11.560;2023-01-25T14:53:20;1.70;99.90
48376;DHT22;34178;50.904;11.560;2023-01-25T14:55:47;1.80;99.90
48376;DHT22;34178;50.904;11.560;2023-01-25T14:58:20;1.80;99.90
48376;DHT22;34178;50.904;11.560;2023-01-25T15:00:57;1.80;99.90
48376;DHT22;34178;50.904;11.560;2023-01-25T15:03:24;1.80;99.90
48376;DHT22;34178;50.904;11.560;2023-01-25T15:05:52;1.90;99.90
48376;DHT22;34178;50.904;11.560;2023-01-25T15:08:37;2.00;99.90
48376;DHT22;34178;50.904;11.560;2023-01-25T15:11:04;2.00;99.90
48376;DHT22;34178;50.904;11.560;2023-01-25T15:14:00;2.00;99.90
48376;DHT22;34178;50.904;11.560;2023-01-25T15:16:33;1.80;99.90
48376;DHT22;34178;50.904;11.560;2023-01-25T15:18:59;1.50;99.90
48376;DHT22;34178;50.904;11.560;2023-01-25T15:21:27;1.40;99.90
48376;DHT22;34178;50.904;11.560;2023-01-25T15:23:55;1.20;99.90
48376;DHT22;34178;50.904;11.560;2023-01-25T15:26:26;1.20;99.90
48376;DHT22;34178;50.904;11.560;2023-01-25T15:28:55;1.30;99.90
48376;DHT22;34178;50.904;11.560;2023-01-25T15:31:28;1.30;99.90
48376;DHT22;34178;50.904;11.560;2023-01-25T15:33:55;1.50;99.90
48376;DHT22;34178;50.904;11.560;2023-01-25T15:36:21;1.50;99.90
48376;DHT22;34178;50.904;11.560;2023-01-25T15:38:46;1.60;99.90
48376;DHT22;34178;50.904;11.560;2023-01-25T15:41:12;1.60;99.90
48376;DHT22;34178;50.904;11.560;2023-01-25T15:43:38;1.40;99.90
48376;DHT22;34178;50.904;11.560;2023-01-25T15:46:06;1.40;99.90
48376;DHT22;34178;50.904;11.560;2023-01-25T15:56:25;1.40;99.90
48376;DHT22;34178;50.904;11.560;2023-01-25T15:58:54;1.40;99.90
48376;DHT22;34178;50.904;11.560;2023-01-25T16:01:22;1.40;99.90
48376;DHT22;34178;50.904;11.560;2023-01-25T16:03:48;1.40;99.90
48376;DHT22;34178;50.904;11.560;2023-01-25T16:45:04;1.20;99.90
48376;DHT22;34178;50.904;11.560;2023-01-25T16:47:30;1.10;99.90
48376;DHT22;34178;50.904;11.560;2023-01-25T16:49:55;1.20;99.90
48376;DHT22;34178;50.904;11.560;2023-01-25T16:52:21;1.20;99.90
48376;DHT22;34178;50.904;11.560;2023-01-25T16:54:47;1.00;99.90
48376;DHT22;34178;50.904;11.560;2023-01-25T17:05:43;1.10;99.90
48376;DHT22;34178;50.904;11.560;2023-01-25T17:18:30;1.20;99.90
48376;DHT22;34178;50.904;11.560;2023-01-25T17:21:00;1.20;99.90
48376;DHT22;34178;50.904;11.560;2023-01-25T17:23:27;1.20;99.90
48376;DHT22;34178;50.904;11.560;2023-01-25T17:25:55;1.20;99.90
48376;DHT22;34178;50.904;11.560;2023-01-25T17:51:39;1.30;99.90
48376;DHT22;34178;50.904;11.560;2023-01-25T17:54:05;1.30;99.90
48376;DHT22;34178;50.904;11.560;2023-01-25T18:01:42;1.30;99.90
48376;DHT22;34178;50.904;11.560;2023-01-25T18:04:08;1.40;99.90
48376;DHT22;34178;50.904;11.560;2023-01-25T18:22:06;1.00;99.90
48376;DHT22;34178;50.904;11.560;2023-01-25T18:24:33;0.90;99.90
48376;DHT22;34178;50.904;11.560;2023-01-25T18:29:44;1.00;99.90
48376;DHT22;34178;50.904;11.560;2023-01-25T18:32:10;1.10;99.90
48376;DHT22;34178;50.904;11.560;2023-01-25T18:34:36;1.20;99.90
48376;DHT22;34178;50.904;11.560;2023-01-25T18:39:48;1.20;99.90
48376;DHT22;34178;50.904;11.560;2023-01-25T18:42:15;1.20;99.90
48376;DHT22;34178;50.904;11.560;2023-01-25T18:44:41;1.30;99.90
48376;DHT22;34178;50.904;11.560;2023-01-25T19:10:26;1.30;99.90
48376;DHT22;34178;50.904;11.560;2023-01-25T19:12:54;1.40;99.90
48376;DHT22;34178;50.904;11.560;2023-01-25T19:15:19;1.40;99.90
48376;DHT22;34178;50.904;11.560;2023-01-25T20:09:32;1.50;99.90
48376;DHT22;34178;50.904;11.560;2023-01-25T20:11:58;1.50;99.90
48376;DHT22;34178;50.904;11.560;2023-01-25T20:14:25;1.50;99.90
48376;DHT22;34178;50.904;11.560;2023-01-25T20:16:50;1.50;99.90
48376;DHT22;34178;50.904;11.560;2023-01-25T20:19:17;1.50;99.90
48376;DHT22;34178;50.904;11.560;2023-01-25T20:21:43;1.40;99.90
48376;DHT22;34178;50.904;11.560;2023-01-25T20:24:09;1.30;99.90
48376;DHT22;34178;50.904;11.560;2023-01-25T20:31:46;1.10;99.90
48376;DHT22;34178;50.904;11.560;2023-01-25T20:34:17;1.10;99.90
48376;DHT22;34178;50.904;11.560;2023-01-25T20:36:44;1.10;99.90
48376;DHT22;34178;50.904;11.560;2023-01-25T20:39:15;1.10;99.90
48376;DHT22;34178;50.904;11.560;2023-01-25T20:41:42;1.10;99.90
48376;DHT22;34178;50.904;11.560;2023-01-25T20:44:08;1.10;99.90
48376;DHT22;34178;50.904;11.560;2023-01-25T20:46:38;1.10;99.90
48376;DHT22;34178;50.904;11.560;2023-01-25T20:49:07;1.20;99.90
48376;DHT22;34178;50.904;11.560;2023-01-25T20:51:33;1.10;99.90
48376;DHT22;34178;50.904;11.560;2023-01-25T20:54:00;0.90;99.90
48376;DHT22;34178;50.904;11.560;2023-01-25T20:56:26;0.90;99.90
48376;DHT22;34178;50.904;11.560;2023-01-25T20:58:52;1.00;99.90
48376;DHT22;34178;50.904;11.560;2023-01-25T21:01:24;1.10;99.90
48376;DHT22;34178;50.904;11.560;2023-01-25T21:03:53;1.10;99.90